Time;durP1;ratioP1;P1;durP2;ratioP2;P2;SDS_P1;SDS_P2;PMS_P1;PMS_P2;Temp;Humidity;BMP_temperature;BMP_pressure;BME280_temperature;BME280_humidity;BME280_pressure;Samples;Min_cycle;Max_cycle;Signal;HPM_P1;HPM_P2
2021/07/25 00:01:15;;;;;;;17.87;14.65;;;;;;;16.36;69.74;97042.59;1781737;79;26361;-88
2021/07/25 00:03:42;;;;;;;16.57;13.62;;;;;;;16.32;69.68;97047.72;1775082;79;26213;-89
2021/07/25 00:06:16;;;;;;;16.23;13.48;;;;;;;16.26;69.74;97049.30;1806888;77;25704;-88
2021/07/25 00:08:43;;;;;;;20.45;12.95;;;;;;;16.23;69.85;97047.08;1779379;78;27409;-88
2021/07/25 00:11:13;;;;;;;15.68;12.73;;;;;;;16.20;69.75;97044.31;1740688;79;25796;-88
2021/07/25 00:13:40;;;;;;;16.05;13.13;;;;;;;16.16;69.77;97050.84;1762535;80;25740;-89
2021/07/25 00:16:08;;;;;;;19.82;12.53;;;;;;;16.09;69.78;97052.91;1789677;77;26249;-89
2021/07/25 00:18:34;;;;;;;18.07;13.60;;;;;;;16.04;69.85;97056.95;1793666;78;25732;-89
2021/07/25 00:21:01;;;;;;;16.07;13.35;;;;;;;16.01;69.94;97058.00;1790613;78;27382;-87
2021/07/25 00:23:28;;;;;;;18.82;12.85;;;;;;;15.96;69.96;97060.64;1761525;79;25907;-88
2021/07/25 00:25:56;;;;;;;16.30;12.85;;;;;;;15.91;69.99;97065.51;1777887;78;25350;-89
2021/07/25 00:28:32;;;;;;;15.48;12.00;;;;;;;15.85;70.06;97064.60;1763652;79;26498;-89
2021/07/25 00:30:53;;;;;;;14.25;11.93;;;;;;;15.82;70.03;97056.11;1770227;79;25710;-89
2021/07/25 00:33:19;;;;;;;16.85;13.13;;;;;;;15.77;70.08;97058.25;1791240;77;27379;-89
2021/07/25 00:35:46;;;;;;;18.98;12.55;;;;;;;15.74;70.08;97057.92;1807970;77;25879;-88
2021/07/25 00:38:13;;;;;;;13.95;12.30;;;;;;;15.66;70.08;97058.37;1809382;78;25257;-88
2021/07/25 00:40:44;;;;;;;16.82;12.73;;;;;;;15.62;70.31;97056.69;1806952;77;25450;-87
2021/07/25 00:43:30;;;;;;;16.97;12.10;;;;;;;15.63;70.33;97050.70;1774385;77;25768;-88
2021/07/25 00:45:57;;;;;;;17.15;12.93;;;;;;;15.62;70.30;97049.06;1768052;79;28344;-89
2021/07/25 00:48:25;;;;;;;19.45;12.65;;;;;;;15.59;70.29;97049.55;1782274;77;25702;-88
2021/07/25 00:50:54;;;;;;;16.95;11.88;;;;;;;15.55;70.42;97048.43;1783923;78;25664;-88
2021/07/25 00:53:22;;;;;;;18.35;12.60;;;;;;;15.55;70.49;97049.80;1768670;78;25683;-88
2021/07/25 00:55:49;;;;;;;16.73;12.93;;;;;;;15.53;70.43;97036.94;1789330;77;25814;-89
2021/07/25 00:58:15;;;;;;;14.68;11.85;;;;;;;15.51;70.45;97035.83;1775202;79;28147;-88
2021/07/25 01:00:46;;;;;;;16.62;12.45;;;;;;;15.47;70.48;97039.58;1759587;79;25482;-88
2021/07/25 01:03:41;;;;;;;16.97;12.65;;;;;;;15.41;70.48;97031.08;1768817;80;25814;-88
2021/07/25 01:06:21;;;;;;;14.68;12.20;;;;;;;15.36;70.55;97024.20;1762505;79;25847;-87
2021/07/25 01:09:04;;;;;;;17.82;12.50;;;;;;;15.34;70.60;97030.42;1728822;80;25739;-88
2021/07/25 01:11:46;;;;;;;16.20;12.60;;;;;;;15.32;70.72;97033.95;1781513;78;27427;-89
2021/07/25 01:14:30;;;;;;;16.97;12.45;;;;;;;15.25;70.74;97027.84;1788064;79;25827;-88
2021/07/25 01:17:36;;;;;;;16.10;12.90;;;;;;;15.14;70.71;97029.59;1748159;80;25959;-88
2021/07/25 01:20:07;;;;;;;15.98;12.98;;;;;;;15.12;70.99;97041.79;1762749;79;26277;-88
2021/07/25 01:22:40;;;;;;;16.52;12.28;;;;;;;15.08;71.00;97037.41;1731047;81;25803;-87
2021/07/25 01:25:11;;;;;;;16.15;12.33;;;;;;;15.08;70.97;97031.97;1782990;79;27205;-88
2021/07/25 01:28:04;;;;;;;13.68;11.48;;;;;;;15.07;70.95;97030.86;1731610;82;25263;-88
2021/07/25 01:30:40;;;;;;;17.75;11.85;;;;;;;15.05;70.94;97031.63;1760667;79;25695;-88
2021/07/25 01:33:14;;;;;;;16.65;12.23;;;;;;;15.00;71.02;97028.29;1796557;78;26341;-88
2021/07/25 01:35:44;;;;;;;15.55;12.30;;;;;;;14.98;71.01;97026.35;1790838;78;25672;-89
2021/07/25 01:38:11;;;;;;;15.72;12.47;;;;;;;14.98;71.03;97025.53;1795761;78;27405;-88
2021/07/25 01:40:38;;;;;;;14.65;12.05;;;;;;;14.96;71.00;97029.05;1809037;78;25730;-88
2021/07/25 01:43:07;;;;;;;15.32;11.60;;;;;;;14.93;71.06;97030.91;1793580;78;25764;-89
2021/07/25 01:45:34;;;;;;;16.45;11.45;;;;;;;14.92;71.12;97029.25;1810196;77;26412;-89
2021/07/25 01:48:01;;;;;;;15.00;11.35;;;;;;;14.88;71.13;97028.09;1780445;77;25617;-90
2021/07/25 01:50:28;;;;;;;14.10;11.85;;;;;;;14.76;71.10;97024.92;1777957;79;28400;-89
2021/07/25 01:52:54;;;;;;;19.62;12.73;;;;;;;14.71;71.28;97023.50;1766405;79;25758;-89
2021/07/25 01:55:21;;;;;;;17.40;11.80;;;;;;;14.71;71.43;97016.71;1746861;79;25801;-89
2021/07/25 01:57:47;;;;;;;14.55;11.93;;;;;;;14.73;71.50;97021.34;1743571;80;25795;-88
2021/07/25 02:00:14;;;;;;;15.63;12.93;;;;;;;14.73;71.48;97027.34;1761163;79;25703;-90
2021/07/25 02:02:41;;;;;;;15.83;12.10;;;;;;;14.71;71.44;97037.08;1795057;78;27389;-89
2021/07/25 02:05:08;;;;;;;15.53;11.60;;;;;;;14.64;71.44;97026.89;1798300;77;25740;-88
2021/07/25 02:07:35;;;;;;;19.40;12.05;;;;;;;14.66;71.57;97034.27;1779417;77;25883;-89
2021/07/25 02:10:01;;;;;;;15.68;12.23;;;;;;;14.63;71.52;97032.04;1781693;78;26403;-88
2021/07/25 02:12:28;;;;;;;15.85;11.55;;;;;;;14.54;71.61;97026.73;1787015;79;25708;-87
2021/07/25 02:14:54;;;;;;;12.55;11.28;;;;;;;14.56;71.67;97031.39;1811986;77;28026;-88
2021/07/25 02:17:21;;;;;;;16.97;12.58;;;;;;;14.55;71.71;97027.55;1796321;77;25811;-88
2021/07/25 02:19:48;;;;;;;12.53;11.22;;;;;;;14.55;71.74;97037.89;1814997;77;25834;-89
2021/07/25 02:22:14;;;;;;;14.70;12.23;;;;;;;14.53;71.75;97043.27;1806650;77;26822;-87
2021/07/25 02:24:41;;;;;;;16.27;12.47;;;;;;;14.43;71.73;97035.77;1786103;78;25766;-88
2021/07/25 02:27:08;;;;;;;13.83;11.65;;;;;;;14.42;71.92;97034.13;1755872;78;27382;-88
2021/07/25 02:29:34;;;;;;;12.37;11.03;;;;;;;14.42;71.92;97030.05;1711085;81;25760;-87
2021/07/25 02:32:01;;;;;;;16.55;11.75;;;;;;;14.42;71.92;97031.41;1773125;79;25690;-88
2021/07/25 02:34:28;;;;;;;17.05;11.50;;;;;;;14.41;71.93;97028.39;1731477;80;25829;-88
2021/07/25 02:36:54;;;;;;;16.67;12.60;;;;;;;14.41;71.95;97020.25;1728499;81;25701;-88
2021/07/25 02:39:21;;;;;;;18.07;11.85;;;;;;;14.38;72.01;97017.45;1758090;80;27090;-87
2021/07/25 02:41:47;;;;;;;14.75;11.35;;;;;;;14.32;72.06;97009.48;1780454;79;25653;-88
2021/07/25 02:44:14;;;;;;;16.25;12.43;;;;;;;14.28;72.21;97005.59;1795102;77;25753;-88
2021/07/25 02:46:40;;;;;;;16.62;12.58;;;;;;;14.28;72.35;97000.16;1808180;78;26301;-88
2021/07/25 02:49:07;;;;;;;17.90;12.37;;;;;;;14.29;72.32;97008.60;1748669;80;26423;-88
2021/07/25 02:51:34;;;;;;;19.12;13.00;;;;;;;14.27;72.26;97013.45;1765105;79;27603;-87
2021/07/25 02:54:00;;;;;;;16.73;13.18;;;;;;;14.22;72.37;97012.84;1757823;78;25717;-87
2021/07/25 02:56:27;;;;;;;21.75;11.40;;;;;;;14.22;72.54;97014.73;1784759;78;25314;-87
2021/07/25 02:58:54;;;;;;;18.50;12.47;;;;;;;14.23;72.50;97011.77;1789818;78;26182;-87
2021/07/25 03:01:20;;;;;;;17.00;11.60;;;;;;;14.24;72.42;97024.81;1810490;78;25758;-87
2021/07/25 03:03:47;;;;;;;13.88;10.80;;;;;;;14.24;72.35;97023.45;1812893;77;27351;-88
2021/07/25 03:06:14;;;;;;;13.90;11.43;;;;;;;14.22;72.32;97022.88;1813521;77;25791;-87
2021/07/25 03:08:40;;;;;;;14.95;11.78;;;;;;;14.20;72.35;97029.90;1807138;78;26055;-87
2021/07/25 03:11:10;;;;;;;15.48;11.48;;;;;;;14.20;72.46;97030.43;1795750;78;25689;-88
2021/07/25 03:13:37;;;;;;;16.27;12.28;;;;;;;14.16;72.45;97022.47;1781513;78;25766;-87
2021/07/25 03:16:07;;;;;;;14.35;11.25;;;;;;;14.10;72.53;97022.93;1812196;78;27566;-87
2021/07/25 03:18:34;;;;;;;17.80;11.40;;;;;;;14.10;72.68;97022.10;1813076;77;25870;-88
2021/07/25 03:21:03;;;;;;;13.25;11.28;;;;;;;14.06;72.72;97025.83;1803701;77;26375;-87
2021/07/25 03:23:30;;;;;;;16.42;12.30;;;;;;;14.04;72.82;97027.42;1811782;77;25784;-87
2021/07/25 03:25:56;;;;;;;15.98;11.88;;;;;;;14.00;72.93;97027.63;1818915;77;25790;-87
2021/07/25 03:28:23;;;;;;;16.10;11.75;;;;;;;14.02;73.06;97020.05;1795987;79;28298;-87
2021/07/25 03:30:50;;;;;;;13.88;11.15;;;;;;;14.04;73.19;97027.42;1785003;79;25732;-87
2021/07/25 03:33:18;;;;;;;15.75;12.07;;;;;;;14.03;73.19;97017.62;1793095;79;25729;-88
2021/07/25 03:35:44;;;;;;;14.13;10.88;;;;;;;14.06;73.25;97025.30;1746319;80;25736;-87
2021/07/25 03:38:11;;;;;;;17.52;12.53;;;;;;;14.08;73.32;97021.52;1766027;79;25712;-87
2021/07/25 03:40:41;;;;;;;16.82;12.20;;;;;;;14.12;73.43;97034.91;1765428;79;27557;-88
2021/07/25 03:43:06;;;;;;;17.70;12.00;;;;;;;14.10;73.48;97022.10;1778795;79;25979;-87
2021/07/25 03:45:33;;;;;;;17.75;12.45;;;;;;;14.05;73.50;97022.82;1747139;80;25706;-87
2021/07/25 03:47:59;;;;;;;14.98;11.65;;;;;;;14.08;73.64;97022.34;1779531;79;25700;-87
2021/07/25 03:50:26;;;;;;;15.25;12.15;;;;;;;14.09;73.71;97021.28;1790493;79;25671;-87
2021/07/25 03:52:53;;;;;;;16.05;12.05;;;;;;;14.13;73.69;97024.34;1765752;79;27386;-87
2021/07/25 03:55:19;;;;;;;15.85;12.00;;;;;;;14.16;73.77;97025.19;1805088;77;25789;-86
2021/07/25 03:57:46;;;;;;;17.25;11.73;;;;;;;14.18;73.87;97030.67;1813984;77;25804;-87
2021/07/25 04:00:14;;;;;;;16.17;12.68;;;;;;;14.19;73.90;97028.78;1803109;78;25629;-87
2021/07/25 04:02:40;;;;;;;16.62;11.35;;;;;;;14.21;73.96;97030.19;1806144;77;25849;-87
2021/07/25 04:05:08;;;;;;;15.35;11.55;;;;;;;14.20;73.89;97028.54;1789364;77;27423;-87
2021/07/25 04:07:35;;;;;;;15.80;12.45;;;;;;;14.24;73.94;97037.03;1810204;77;25810;-87
2021/07/25 04:10:02;;;;;;;13.43;11.88;;;;;;;14.30;73.97;97038.76;1801558;77;25745;-87
2021/07/25 04:12:29;;;;;;;15.15;10.68;;;;;;;14.36;74.01;97043.23;1793594;78;26290;-87
2021/07/25 04:14:55;;;;;;;13.75;11.80;;;;;;;14.43;74.01;97041.73;1791952;78;25718;-86
2021/07/25 04:17:22;;;;;;;17.55;12.30;;;;;;;14.46;74.07;97039.36;1753396;80;28214;-87
2021/07/25 04:19:49;;;;;;;18.62;12.88;;;;;;;14.51;74.18;97042.15;1774706;79;26136;-87
2021/07/25 04:22:15;;;;;;;15.00;11.78;;;;;;;14.54;74.19;97044.92;1760596;80;25681;-86
2021/07/25 04:24:42;;;;;;;18.27;12.50;;;;;;;14.59;74.22;97042.30;1735480;80;26382;-87
2021/07/25 04:27:09;;;;;;;15.68;12.03;;;;;;;14.65;74.22;97044.02;1731105;81;26318;-87
2021/07/25 04:29:37;;;;;;;15.10;11.50;;;;;;;14.72;74.20;97053.67;1739489;82;28429;-87
2021/07/25 04:32:04;;;;;;;19.55;12.55;;;;;;;14.76;74.18;97048.55;1737540;80;25273;-87
2021/07/25 04:34:31;;;;;;;14.90;12.00;;;;;;;14.78;74.18;97045.06;1736058;82;25768;-87
2021/07/25 04:37:00;;;;;;;14.83;12.30;;;;;;;14.82;74.11;97038.61;1718773;81;26358;-87
2021/07/25 04:39:27;;;;;;;15.48;12.55;;;;;;;14.89;74.21;97037.89;1724551;82;25732;-86
2021/07/25 04:41:57;;;;;;;17.82;12.23;;;;;;;14.96;74.13;97041.28;1800045;77;27240;-87
2021/07/25 04:44:35;;;;;;;14.65;12.45;;;;;;;15.03;74.13;97037.84;1806411;77;25721;-87
2021/07/25 04:47:04;;;;;;;17.98;12.63;;;;;;;15.08;74.15;97024.34;1809127;77;25763;-86
2021/07/25 04:49:58;;;;;;;18.62;12.73;;;;;;;15.15;74.10;97019.55;1819002;77;25828;-87
2021/07/25 04:52:26;;;;;;;14.55;11.55;;;;;;;15.23;74.13;97015.57;1808770;77;25672;-87
2021/07/25 04:54:57;;;;;;;19.82;13.08;;;;;;;15.32;73.95;97015.45;1810648;77;27346;-87
2021/07/25 04:57:25;;;;;;;15.48;12.73;;;;;;;15.36;73.84;97016.58;1808256;77;25795;-86
2021/07/25 04:59:54;;;;;;;17.75;11.90;;;;;;;15.41;73.85;97012.04;1806483;77;25788;-86
2021/07/25 05:02:24;;;;;;;16.32;12.75;;;;;;;15.47;73.67;97006.94;1790730;79;25814;-87
2021/07/25 05:04:51;;;;;;;17.15;12.90;;;;;;;15.55;73.62;96999.47;1725175;80;25806;-88
2021/07/25 05:07:18;;;;;;;18.12;12.23;;;;;;;15.61;73.62;97004.70;1795852;77;27419;-87
2021/07/25 05:09:45;;;;;;;15.55;12.20;;;;;;;15.67;73.45;97011.88;1778932;77;25757;-86
2021/07/25 05:12:20;;;;;;;15.68;12.25;;;;;;;15.72;73.30;96999.67;1812719;77;25759;-87
2021/07/25 05:15:13;;;;;;;17.77;12.50;;;;;;;15.79;73.23;96998.95;1807753;78;25747;-87
2021/07/25 05:17:56;;;;;;;20.60;13.32;;;;;;;15.85;73.25;96997.10;1811441;77;25798;-87
2021/07/25 05:20:37;;;;;;;16.90;13.30;;;;;;;15.92;73.39;96999.64;1784563;77;28198;-87
2021/07/25 05:23:12;;;;;;;16.95;13.05;;;;;;;16.01;73.50;96996.74;1807370;78;26329;-87
2021/07/25 05:25:44;;;;;;;16.97;12.82;;;;;;;16.05;73.43;96997.34;1801891;78;25738;-86
2021/07/25 05:28:11;;;;;;;16.12;12.28;;;;;;;16.13;73.41;96995.52;1806062;78;26201;-87
2021/07/25 05:30:40;;;;;;;18.55;12.58;;;;;;;16.22;73.12;96994.51;1790602;77;25774;-88
2021/07/25 05:33:07;;;;;;;18.35;12.07;;;;;;;16.30;72.96;96985.08;1803985;77;27429;-87
2021/07/25 05:35:34;;;;;;;19.20;12.85;;;;;;;16.38;73.07;96978.61;1794420;79;25863;-87
2021/07/25 05:38:01;;;;;;;16.42;12.78;;;;;;;16.50;73.15;96975.72;1808684;77;25717;-87
2021/07/25 05:40:27;;;;;;;16.15;11.85;;;;;;;16.61;73.25;96977.44;1796639;77;26128;-87
2021/07/25 05:42:54;;;;;;;14.73;10.95;;;;;;;16.73;73.04;96975.39;1789656;78;25727;-87
2021/07/25 05:45:20;;;;;;;14.10;10.98;;;;;;;16.84;72.57;96970.30;1806026;78;28308;-87
2021/07/25 05:47:47;;;;;;;14.15;10.45;;;;;;;16.97;72.26;96969.02;1792473;79;25677;-88
2021/07/25 05:50:14;;;;;;;15.05;10.72;;;;;;;17.10;71.86;96967.74;1788074;78;25697;-87
2021/07/25 05:52:53;;;;;;;14.38;11.08;;;;;;;17.22;71.58;96974.64;1732225;80;25439;-87
2021/07/25 05:55:22;;;;;;;14.87;10.63;;;;;;;17.35;71.32;96976.08;1739440;79;25321;-88
2021/07/25 05:57:49;;;;;;;13.85;11.00;;;;;;;17.47;71.02;96978.05;1773414;78;27512;-87
2021/07/25 06:00:17;;;;;;;15.50;12.45;;;;;;;17.60;70.86;96978.93;1804988;77;26363;-87
2021/07/25 06:02:59;;;;;;;15.03;11.33;;;;;;;17.71;70.68;96984.45;1807430;77;26428;-87
2021/07/25 06:05:30;;;;;;;16.62;11.50;;;;;;;17.83;70.71;96974.95;1797027;77;25632;-88
2021/07/25 06:08:00;;;;;;;19.95;12.20;;;;;;;17.97;70.82;96976.64;1820013;77;25671;-87
2021/07/25 06:10:29;;;;;;;14.70;11.93;;;;;;;18.08;70.95;96978.30;1810881;77;27447;-87
2021/07/25 06:13:01;;;;;;;13.68;11.85;;;;;;;18.17;70.98;96975.31;1812611;77;25682;-88
2021/07/25 06:15:30;;;;;;;13.13;10.78;;;;;;;18.27;70.89;96973.14;1794098;78;26011;-88
2021/07/25 06:17:56;;;;;;;16.60;11.48;;;;;;;18.34;70.78;96977.27;1793214;78;26194;-87
2021/07/25 06:20:23;;;;;;;15.78;11.00;;;;;;;18.42;70.50;96975.91;1816184;78;25237;-87
2021/07/25 06:22:53;;;;;;;14.90;11.48;;;;;;;18.50;70.45;96978.09;1796962;77;27523;-87
2021/07/25 06:25:23;;;;;;;16.45;11.63;;;;;;;18.56;70.22;96971.55;1808765;77;26371;-87
2021/07/25 06:27:54;;;;;;;18.90;11.90;;;;;;;18.64;69.82;96980.59;1791870;78;25781;-87
2021/07/25 06:30:23;;;;;;;15.05;11.33;;;;;;;18.74;69.52;96979.77;1774422;78;25711;-88
2021/07/25 06:32:56;;;;;;;12.43;11.08;;;;;;;18.83;69.38;96980.88;1776875;79;26534;-87
2021/07/25 06:35:27;;;;;;;13.53;11.08;;;;;;;18.94;69.38;96972.95;1722092;82;28281;-87
2021/07/25 06:37:54;;;;;;;13.72;10.85;;;;;;;19.04;69.19;96978.40;1726967;82;25495;-87
2021/07/25 06:40:21;;;;;;;14.40;10.93;;;;;;;19.16;69.52;96975.91;1760864;79;25759;-87
2021/07/25 06:42:48;;;;;;;12.93;11.18;;;;;;;19.28;69.60;96976.44;1773244;80;25818;-87
2021/07/25 06:45:15;;;;;;;14.50;11.20;;;;;;;19.43;69.07;96976.41;1786837;79;25450;-87
2021/07/25 06:47:49;;;;;;;14.93;12.05;;;;;;;19.56;68.84;96974.45;1789212;80;27361;-87
2021/07/25 06:50:21;;;;;;;17.40;10.82;;;;;;;19.72;69.08;96971.12;1787340;79;25838;-87
2021/07/25 06:52:50;;;;;;;12.68;11.20;;;;;;;19.88;69.15;96963.66;1780055;79;32575;-87
2021/07/25 06:55:20;;;;;;;12.85;10.48;;;;;;;19.99;68.71;96963.88;1778829;79;25857;-88
2021/07/25 06:57:46;;;;;;;12.25;10.03;;;;;;;20.13;68.50;96958.05;1775839;78;25215;-93
2021/07/25 07:00:13;;;;;;;11.22;10.05;;;;;;;20.29;68.11;96948.61;1810558;78;28113;-87
2021/07/25 07:02:54;;;;;;;13.83;10.03;;;;;;;20.43;67.67;96955.13;1810508;77;26407;-88
2021/07/25 07:05:33;;;;;;;16.32;10.10;;;;;;;20.57;67.38;96954.48;1803478;78;25772;-88
2021/07/25 07:08:04;;;;;;;13.85;9.80;;;;;;;20.68;67.01;96949.19;1785801;77;26298;-87
2021/07/25 07:10:34;;;;;;;12.58;9.25;;;;;;;20.78;66.60;96947.17;1804054;78;25444;-88
2021/07/25 07:13:03;;;;;;;16.20;9.85;;;;;;;20.89;66.16;96948.48;1782820;77;28280;-87
2021/07/25 07:15:30;;;;;;;12.85;9.58;;;;;;;20.98;65.95;96943.45;1817306;78;25809;-88
2021/07/25 07:17:59;;;;;;;11.35;10.15;;;;;;;21.07;65.60;96949.93;1808992;78;26069;-87
2021/07/25 07:20:27;;;;;;;11.93;9.53;;;;;;;21.19;65.42;96950.94;1797842;78;25708;-88
2021/07/25 07:23:03;;;;;;;11.35;9.20;;;;;;;21.33;65.26;96944.22;1775548;79;26292;-89
2021/07/25 07:25:35;;;;;;;10.40;9.35;;;;;;;21.46;65.11;96945.72;1784027;79;27399;-88
2021/07/25 07:28:02;;;;;;;11.10;9.65;;;;;;;21.61;64.76;96944.73;1792863;79;25713;-89
2021/07/25 07:30:30;;;;;;;12.80;10.03;;;;;;;21.77;64.81;96943.41;1794461;78;25706;-89
2021/07/25 07:33:10;;;;;;;14.93;10.70;;;;;;;21.89;64.62;96938.30;1814546;77;25814;-89
2021/07/25 07:35:37;;;;;;;13.58;9.85;;;;;;;22.02;64.51;96939.54;1739847;80;25755;-88
2021/07/25 07:38:05;;;;;;;14.47;10.30;;;;;;;22.17;64.25;96937.14;1780967;79;26931;-89
2021/07/25 07:40:32;;;;;;;11.97;9.90;;;;;;;22.27;64.14;96927.36;1793263;79;25664;-89
2021/07/25 07:43:00;;;;;;;12.47;9.65;;;;;;;22.41;63.93;96926.88;1739725;81;25737;-88
2021/07/25 07:45:28;;;;;;;11.08;9.23;;;;;;;22.76;63.46;96919.20;1762183;79;26550;-89
2021/07/25 07:47:54;;;;;;;14.03;9.23;;;;;;;22.76;63.46;96919.20;1746730;80;25915;-86
2021/07/25 07:50:21;;;;;;;10.30;8.78;;;;;;;23.01;62.92;96925.63;1775178;78;27087;-92
2021/07/25 07:52:48;;;;;;;9.63;8.15;;;;;;;23.34;62.70;96916.75;1773851;80;25863;-96
2021/07/25 07:55:15;;;;;;;9.28;8.08;;;;;;;23.73;62.19;96916.27;1765808;79;25758;-96
2021/07/25 07:57:43;;;;;;;8.83;7.92;;;;;;;24.16;61.52;96918.64;1777531;79;25764;-94
2021/07/25 08:00:11;;;;;;;8.93;8.03;;;;;;;24.57;60.83;96920.74;1712515;82;25755;-91
2021/07/25 08:02:39;;;;;;;9.00;7.90;;;;;;;25.03;60.53;96925.14;1791163;79;27574;-88
2021/07/25 08:05:07;;;;;;;8.08;7.08;;;;;;;25.47;59.70;96923.68;1781413;78;25731;-92
2021/07/25 08:07:33;;;;;;;8.23;7.45;;;;;;;25.92;58.77;96923.52;1800130;77;25744;-91
2021/07/25 08:10:00;;;;;;;9.60;7.10;;;;;;;26.31;57.22;96920.45;1761821;78;25836;-86
2021/07/25 08:12:26;;;;;;;7.67;6.62;;;;;;;26.67;56.15;96918.17;1779977;79;25699;-89
2021/07/25 08:14:54;;;;;;;10.15;6.42;;;;;;;27.05;55.77;96916.12;1757566;79;27584;-86
2021/07/25 08:17:21;;;;;;;10.75;6.70;;;;;;;27.40;54.61;96917.64;1763415;79;25800;-85
2021/07/25 08:19:48;;;;;;;7.80;6.80;;;;;;;27.76;53.63;96913.60;1788608;79;25698;-86
2021/07/25 08:22:14;;;;;;;8.93;6.40;;;;;;;27.91;51.93;96914.39;1738584;80;25888;-89
2021/07/25 08:24:41;;;;;;;9.15;6.65;;;;;;;28.15;51.87;96912.37;1752241;79;25805;-86
2021/07/25 08:27:11;;;;;;;7.58;6.78;;;;;;;28.45;50.52;96920.12;1800815;77;27577;-89
2021/07/25 08:29:39;;;;;;;7.85;6.87;;;;;;;28.56;49.90;96926.88;1806740;78;25888;-89
2021/07/25 08:32:07;;;;;;;7.17;6.47;;;;;;;28.43;49.56;96919.64;1787812;77;25762;-85
2021/07/25 08:34:33;;;;;;;7.72;6.90;;;;;;;28.28;48.75;96921.86;1771095;79;26609;-87
2021/07/25 08:37:00;;;;;;;7.30;6.53;;;;;;;28.11;48.67;96917.80;1764895;79;25648;-87
2021/07/25 08:39:28;;;;;;;7.10;6.40;;;;;;;27.98;48.89;96924.98;1777897;79;27415;-88
2021/07/25 08:42:11;;;;;;;8.38;7.10;;;;;;;27.84;48.77;96930.77;1721073;80;25916;-87
2021/07/25 08:44:49;;;;;;;7.85;7.00;;;;;;;27.57;47.83;96926.48;1765641;79;25775;-87
2021/07/25 08:47:36;;;;;;;10.38;6.62;;;;;;;27.42;48.50;96923.64;1807595;78;25670;-91
2021/07/25 08:50:15;;;;;;;10.68;7.10;;;;;;;27.32;48.64;96929.55;1799031;78;25723;-89
2021/07/25 08:52:45;;;;;;;9.30;6.72;;;;;;;27.19;49.21;96934.72;1779300;79;28260;-92
2021/07/25 08:55:18;;;;;;;8.58;6.95;;;;;;;27.04;49.67;96938.03;1801713;78;25747;-89
2021/07/25 08:57:48;;;;;;;10.70;7.33;;;;;;;26.95;49.81;96935.83;1815210;77;25802;-89
2021/07/25 09:00:19;;;;;;;8.35;6.70;;;;;;;26.86;49.97;96933.86;1787114;79;25929;-89
2021/07/25 09:02:48;;;;;;;12.10;7.33;;;;;;;26.76;49.48;96934.77;1779565;79;25763;-93
2021/07/25 09:05:15;;;;;;;7.50;6.72;;;;;;;26.68;49.64;96936.41;1767688;79;28157;-88
2021/07/25 09:07:45;;;;;;;9.05;6.80;;;;;;;26.62;49.65;96941.86;1777726;79;25490;-91
2021/07/25 09:10:19;;;;;;;11.33;7.05;;;;;;;26.57;49.53;96941.22;1754870;80;26437;-89
2021/07/25 09:12:49;;;;;;;8.78;7.17;;;;;;;26.52;49.56;96944.38;1780211;79;25699;-89
2021/07/25 09:15:20;;;;;;;8.13;6.83;;;;;;;26.43;49.56;96945.52;1763625;79;25702;-89
2021/07/25 09:17:48;;;;;;;9.47;7.20;;;;;;;26.35;49.23;96952.66;1791844;78;27416;-87
2021/07/25 09:20:31;;;;;;;9.98;6.90;;;;;;;26.25;49.38;96953.52;1807056;77;25707;-82
2021/07/25 09:23:06;;;;;;;8.28;7.40;;;;;;;26.13;49.30;96952.77;1810703;77;25799;-89
2021/07/25 09:25:37;;;;;;;10.05;7.40;;;;;;;26.06;48.88;96959.34;1818295;78;25707;-88
2021/07/25 09:28:11;;;;;;;7.35;6.60;;;;;;;25.99;48.85;96962.57;1810325;77;33181;-82
2021/07/25 09:30:38;;;;;;;7.85;6.65;;;;;;;25.96;48.51;96965.19;1783816;79;28227;-88
2021/07/25 09:33:26;;;;;;;8.15;7.35;;;;;;;25.92;48.60;96963.62;1771835;77;25962;-90
2021/07/25 09:35:57;;;;;;;12.43;7.10;;;;;;;25.94;49.20;96961.35;1759643;79;25657;-86
2021/07/25 09:38:26;;;;;;;8.08;6.72;;;;;;;25.92;48.92;96968.33;1773882;79;26503;-87
2021/07/25 09:40:53;;;;;;;7.67;6.87;;;;;;;25.86;48.40;96969.59;1822813;77;25854;-87
2021/07/25 09:43:25;;;;;;;9.63;6.85;;;;;;;25.79;48.27;96970.08;1821283;77;27459;-83
2021/07/25 09:45:54;;;;;;;8.13;7.33;;;;;;;25.75;48.28;96983.71;1802777;77;25800;-87
2021/07/25 09:48:33;;;;;;;8.35;7.35;;;;;;;25.71;48.59;96979.98;1780721;79;25306;-88
2021/07/25 09:51:02;;;;;;;10.30;7.80;;;;;;;25.66;48.71;96977.34;1792224;77;25922;-85
2021/07/25 09:53:44;;;;;;;8.85;7.90;;;;;;;25.61;49.07;96976.09;1815351;77;25792;-84
2021/07/25 09:56:16;;;;;;;8.57;7.73;;;;;;;25.57;48.78;96979.80;1802303;77;27502;-87
2021/07/25 09:58:44;;;;;;;;;;;;;;;25.55;49.15;96979.29;1809441;77;25755;-84
2021/07/25 10:01:11;;;;;;;11.45;7.72;;;;;;;25.56;49.24;96979.55;1768726;79;25874;-87
2021/07/25 10:03:38;;;;;;;9.63;8.30;;;;;;;25.54;49.45;96983.19;1757051;79;25896;-87
2021/07/25 10:06:24;;;;;;;9.08;8.18;;;;;;;25.53;49.48;96987.89;1728820;80;25305;-86
2021/07/25 10:09:09;;;;;;;13.80;11.73;;;;;;;25.54;49.69;96981.80;1764418;79;27404;-85
2021/07/25 10:11:37;;;;;;;11.55;8.58;;;;;;;25.60;49.76;96985.48;1717428;82;25880;-82
2021/07/25 10:14:04;;;;;;;11.18;8.20;;;;;;;25.59;49.74;96988.02;1796671;78;25746;-86
2021/07/25 10:16:31;;;;;;;9.98;7.60;;;;;;;25.56;49.77;96983.13;1803987;78;26187;-85
2021/07/25 10:18:58;;;;;;;10.80;7.62;;;;;;;25.59;49.76;96991.35;1784719;79;26336;-86
2021/07/25 10:21:26;;;;;;;9.28;7.85;;;;;;;25.61;49.37;96994.05;1748249;80;27683;-83
2021/07/25 10:23:56;;;;;;;9.45;7.97;;;;;;;25.58;49.15;96996.06;1792513;79;25730;-88
2021/07/25 10:26:27;;;;;;;11.35;7.67;;;;;;;25.49;48.83;97000.14;1764308;79;25685;-86
2021/07/25 10:28:57;;;;;;;10.68;7.37;;;;;;;25.42;48.75;96998.41;1775252;79;25717;-84
2021/07/25 10:31:25;;;;;;;10.20;7.10;;;;;;;25.37;48.77;96997.15;1758647;79;26351;-87
2021/07/25 10:33:54;;;;;;;12.33;7.72;;;;;;;25.36;48.64;97004.37;1756055;79;27429;-88
2021/07/25 10:36:23;;;;;;;13.00;7.72;;;;;;;25.34;48.72;97010.80;1762241;79;25199;-85
2021/07/25 10:38:50;;;;;;;10.40;7.83;;;;;;;25.34;49.01;97008.86;1787396;79;25785;-88
2021/07/25 10:41:24;;;;;;;8.33;7.53;;;;;;;25.35;49.34;97004.14;1736698;81;26578;-88
2021/07/25 10:43:52;;;;;;;10.72;7.87;;;;;;;25.34;49.59;97017.14;1759447;80;25829;-90
2021/07/25 10:46:23;;;;;;;11.97;8.20;;;;;;;25.37;49.75;97017.05;1745225;80;28055;-86
2021/07/25 10:49:05;;;;;;;8.97;8.17;;;;;;;25.36;49.78;97014.85;1728905;81;25724;-89
2021/07/25 10:51:33;;;;;;;10.85;8.40;;;;;;;25.36;49.69;97014.85;1750332;80;34815;-93
2021/07/25 10:54:29;;;;;;;9.23;7.83;;;;;;;25.33;49.52;97019.66;1764412;79;26560;-90
2021/07/25 10:57:13;;;;;;;11.90;7.95;;;;;;;25.26;49.16;97017.06;1812321;78;25731;-90
2021/07/25 10:59:47;;;;;;;9.45;8.40;;;;;;;25.21;49.01;97015.83;1814167;77;27433;-91
2021/07/25 11:02:29;;;;;;;9.63;8.73;;;;;;;25.19;49.15;97018.09;1795094;78;25259;-91
2021/07/25 11:05:01;;;;;;;11.05;9.03;;;;;;;25.18;49.15;97018.66;1772040;79;25937;-89
2021/07/25 11:07:33;;;;;;;10.20;8.37;;;;;;;25.14;49.16;97021.78;1748633;80;25728;-90
2021/07/25 11:10:13;;;;;;;12.03;9.00;;;;;;;25.10;49.24;97024.94;1733450;79;25707;-95
2021/07/25 11:12:55;;;;;;;9.50;8.70;;;;;;;25.09;49.33;97028.27;1780732;78;28248;-91
2021/07/25 11:15:32;;;;;;;10.45;9.13;;;;;;;25.03;49.12;97037.78;1762846;79;25232;-95
2021/07/25 11:18:08;;;;;;;9.00;8.13;;;;;;;24.95;49.27;97038.55;1770801;79;25603;-87
2021/07/25 11:20:53;;;;;;;11.00;9.33;;;;;;;24.86;49.56;97039.02;1728765;80;25772;-95
2021/07/25 11:23:25;;;;;;;9.33;8.43;;;;;;;24.78;49.98;97033.66;1785383;78;25732;-86
2021/07/25 11:25:53;;;;;;;10.10;8.93;;;;;;;24.72;49.52;97040.99;1797228;79;28249;-90
2021/07/25 11:28:44;;;;;;;11.08;9.88;;;;;;;24.60;49.36;97033.27;1779638;78;25726;-93
2021/07/25 11:31:16;;;;;;;11.48;9.45;;;;;;;24.53;49.78;97036.98;1813687;77;25295;-95
2021/07/25 11:33:47;;;;;;;11.50;9.40;;;;;;;24.48;49.88;97035.73;1820396;77;26394;-96
2021/07/25 11:36:20;;;;;;;16.65;9.93;;;;;;;24.44;50.23;97038.85;1819338;77;25221;-96